sensor_id;sensor_type;location;lat;lon;timestamp;P1;durP1;ratioP1;P2;durP2;ratioP2
75220;SDS011;63802;53.232;6.570;2023-12-20T00:00:00;12.73;;;3.25;;
75220;SDS011;63802;53.232;6.570;2023-12-20T00:02:26;22.23;;;4.30;;
75220;SDS011;63802;53.232;6.570;2023-12-20T00:04:51;11.98;;;3.30;;
75220;SDS011;63802;53.232;6.570;2023-12-20T00:07:17;22.00;;;4.10;;
75220;SDS011;63802;53.232;6.570;2023-12-20T00:09:42;17.40;;;3.97;;
75220;SDS011;63802;53.232;6.570;2023-12-20T00:12:07;14.63;;;4.70;;
75220;SDS011;63802;53.232;6.570;2023-12-20T00:14:33;17.92;;;4.18;;
75220;SDS011;63802;53.232;6.570;2023-12-20T00:16:58;14.73;;;4.15;;
75220;SDS011;63802;53.232;6.570;2023-12-20T00:19:26;10.00;;;3.35;;
75220;SDS011;63802;53.232;6.570;2023-12-20T00:21:52;15.45;;;2.90;;
75220;SDS011;63802;53.232;6.570;2023-12-20T00:24:17;14.52;;;1.85;;
75220;SDS011;63802;53.232;6.570;2023-12-20T00:26:43;9.48;;;1.50;;
75220;SDS011;63802;53.232;6.570;2023-12-20T00:29:08;17.25;;;2.17;;
75220;SDS011;63802;53.232;6.570;2023-12-20T00:31:33;8.80;;;1.95;;
75220;SDS011;63802;53.232;6.570;2023-12-20T00:33:59;10.52;;;1.60;;
75220;SDS011;63802;53.232;6.570;2023-12-20T00:36:24;16.35;;;2.05;;
75220;SDS011;63802;53.232;6.570;2023-12-20T00:38:50;6.35;;;1.75;;
75220;SDS011;63802;53.232;6.570;2023-12-20T00:41:16;14.57;;;2.45;;
75220;SDS011;63802;53.232;6.570;2023-12-20T00:43:42;8.48;;;1.83;;
75220;SDS011;63802;53.232;6.570;2023-12-20T00:46:07;10.82;;;3.28;;
75220;SDS011;63802;53.232;6.570;2023-12-20T00:48:33;14.23;;;3.38;;
75220;SDS011;63802;53.232;6.570;2023-12-20T00:50:58;12.85;;;2.65;;
75220;SDS011;63802;53.232;6.570;2023-12-20T00:53:24;17.50;;;3.72;;
75220;SDS011;63802;53.232;6.570;2023-12-20T00:55:49;20.48;;;4.03;;
75220;SDS011;63802;53.232;6.570;2023-12-20T00:58:15;15.73;;;3.00;;
75220;SDS011;63802;53.232;6.570;2023-12-20T01:00:41;10.55;;;2.67;;
75220;SDS011;63802;53.232;6.570;2023-12-20T01:03:08;14.60;;;2.80;;
75220;SDS011;63802;53.232;6.570;2023-12-20T01:05:33;11.23;;;2.60;;
75220;SDS011;63802;53.232;6.570;2023-12-20T01:07:59;9.88;;;2.97;;
75220;SDS011;63802;53.232;6.570;2023-12-20T01:10:24;21.67;;;3.67;;
75220;SDS011;63802;53.232;6.570;2023-12-20T01:12:53;12.95;;;2.58;;
75220;SDS011;63802;53.232;6.570;2023-12-20T01:15:18;10.80;;;2.15;;
75220;SDS011;63802;53.232;6.570;2023-12-20T01:17:43;13.45;;;2.65;;
75220;SDS011;63802;53.232;6.570;2023-12-20T01:20:09;6.00;;;2.58;;
75220;SDS011;63802;53.232;6.570;2023-12-20T01:22:35;9.48;;;2.38;;
75220;SDS011;63802;53.232;6.570;2023-12-20T01:25:00;9.40;;;1.77;;
75220;SDS011;63802;53.232;6.570;2023-12-20T01:27:27;10.57;;;1.88;;
75220;SDS011;63802;53.232;6.570;2023-12-20T01:29:52;22.75;;;2.70;;
75220;SDS011;63802;53.232;6.570;2023-12-20T01:32:18;14.25;;;2.20;;
75220;SDS011;63802;53.232;6.570;2023-12-20T01:34:43;10.70;;;2.45;;
75220;SDS011;63802;53.232;6.570;2023-12-20T01:37:08;16.98;;;2.95;;
75220;SDS011;63802;53.232;6.570;2023-12-20T01:39:34;11.07;;;3.40;;
75220;SDS011;63802;53.232;6.570;2023-12-20T01:41:59;25.42;;;4.43;;
75220;SDS011;63802;53.232;6.570;2023-12-20T01:44:25;13.30;;;3.80;;
75220;SDS011;63802;53.232;6.570;2023-12-20T01:46:51;20.67;;;4.22;;
75220;SDS011;63802;53.232;6.570;2023-12-20T01:49:17;19.77;;;4.13;;
75220;SDS011;63802;53.232;6.570;2023-12-20T01:51:42;22.80;;;4.88;;
75220;SDS011;63802;53.232;6.570;2023-12-20T01:54:08;16.30;;;3.25;;
75220;SDS011;63802;53.232;6.570;2023-12-20T01:56:34;15.18;;;3.15;;
75220;SDS011;63802;53.232;6.570;2023-12-20T01:58:59;8.20;;;2.10;;
75220;SDS011;63802;53.232;6.570;2023-12-20T02:01:29;13.00;;;2.08;;
75220;SDS011;63802;53.232;6.570;2023-12-20T02:03:55;8.13;;;1.92;;
75220;SDS011;63802;53.232;6.570;2023-12-20T02:06:21;7.65;;;1.40;;
75220;SDS011;63802;53.232;6.570;2023-12-20T02:08:48;11.75;;;2.10;;
75220;SDS011;63802;53.232;6.570;2023-12-20T02:11:15;7.85;;;1.88;;
75220;SDS011;63802;53.232;6.570;2023-12-20T02:13:41;7.68;;;1.67;;
75220;SDS011;63802;53.232;6.570;2023-12-20T02:16:06;14.75;;;1.60;;
75220;SDS011;63802;53.232;6.570;2023-12-20T02:18:32;9.73;;;1.80;;
75220;SDS011;63802;53.232;6.570;2023-12-20T02:20:58;13.18;;;1.65;;
75220;SDS011;63802;53.232;6.570;2023-12-20T02:23:23;10.27;;;2.17;;
75220;SDS011;63802;53.232;6.570;2023-12-20T02:25:48;11.85;;;1.38;;
75220;SDS011;63802;53.232;6.570;2023-12-20T02:28:14;14.60;;;2.67;;
75220;SDS011;63802;53.232;6.570;2023-12-20T02:30:39;15.70;;;2.70;;
75220;SDS011;63802;53.232;6.570;2023-12-20T02:33:06;13.18;;;3.35;;
75220;SDS011;63802;53.232;6.570;2023-12-20T02:35:36;17.77;;;4.00;;
75220;SDS011;63802;53.232;6.570;2023-12-20T02:38:01;16.52;;;3.95;;
75220;SDS011;63802;53.232;6.570;2023-12-20T02:40:27;19.65;;;3.50;;
75220;SDS011;63802;53.232;6.570;2023-12-20T02:42:52;19.05;;;3.53;;
75220;SDS011;63802;53.232;6.570;2023-12-20T02:45:18;13.90;;;2.47;;
75220;SDS011;63802;53.232;6.570;2023-12-20T02:47:43;22.17;;;2.53;;
75220;SDS011;63802;53.232;6.570;2023-12-20T02:50:08;16.85;;;2.85;;
75220;SDS011;63802;53.232;6.570;2023-12-20T02:52:34;13.27;;;2.05;;
75220;SDS011;63802;53.232;6.570;2023-12-20T02:54:59;7.85;;;2.22;;
75220;SDS011;63802;53.232;6.570;2023-12-20T02:57:24;14.88;;;2.63;;
75220;SDS011;63802;53.232;6.570;2023-12-20T02:59:50;16.60;;;2.55;;
75220;SDS011;63802;53.232;6.570;2023-12-20T03:02:15;7.78;;;2.13;;
75220;SDS011;63802;53.232;6.570;2023-12-20T03:04:43;18.60;;;2.80;;
75220;SDS011;63802;53.232;6.570;2023-12-20T03:07:09;21.45;;;4.32;;
75220;SDS011;63802;53.232;6.570;2023-12-20T03:09:34;31.13;;;3.95;;
75220;SDS011;63802;53.232;6.570;2023-12-20T03:11:59;21.65;;;2.83;;
75220;SDS011;63802;53.232;6.570;2023-12-20T03:14:25;19.98;;;3.63;;
75220;SDS011;63802;53.232;6.570;2023-12-20T03:16:50;18.73;;;4.07;;
75220;SDS011;63802;53.232;6.570;2023-12-20T03:19:16;16.42;;;4.00;;
75220;SDS011;63802;53.232;6.570;2023-12-20T03:21:44;26.13;;;4.40;;
75220;SDS011;63802;53.232;6.570;2023-12-20T03:24:09;22.33;;;4.35;;
75220;SDS011;63802;53.232;6.570;2023-12-20T03:26:34;25.05;;;4.60;;
75220;SDS011;63802;53.232;6.570;2023-12-20T03:29:00;11.30;;;2.38;;
75220;SDS011;63802;53.232;6.570;2023-12-20T03:31:25;14.20;;;2.80;;
75220;SDS011;63802;53.232;6.570;2023-12-20T03:33:50;18.08;;;2.55;;
75220;SDS011;63802;53.232;6.570;2023-12-20T03:36:17;18.73;;;2.95;;
75220;SDS011;63802;53.232;6.570;2023-12-20T03:38:43;12.07;;;2.45;;
75220;SDS011;63802;53.232;6.570;2023-12-20T03:41:08;13.80;;;2.28;;
75220;SDS011;63802;53.232;6.570;2023-12-20T03:43:33;25.60;;;2.60;;
75220;SDS011;63802;53.232;6.570;2023-12-20T03:45:59;17.65;;;2.65;;
75220;SDS011;63802;53.232;6.570;2023-12-20T03:48:25;15.57;;;2.67;;
75220;SDS011;63802;53.232;6.570;2023-12-20T03:50:50;15.52;;;2.05;;
75220;SDS011;63802;53.232;6.570;2023-12-20T03:53:16;19.00;;;3.05;;
75220;SDS011;63802;53.232;6.570;2023-12-20T03:55:41;16.20;;;2.88;;
75220;SDS011;63802;53.232;6.570;2023-12-20T03:58:06;16.58;;;2.72;;
75220;SDS011;63802;53.232;6.570;2023-12-20T04:00:32;18.33;;;2.67;;
75220;SDS011;63802;53.232;6.570;2023-12-20T04:02:57;14.43;;;3.05;;
75220;SDS011;63802;53.232;6.570;2023-12-20T04:05:23;19.30;;;4.28;;
75220;SDS011;63802;53.232;6.570;2023-12-20T04:07:48;18.45;;;2.60;;
75220;SDS011;63802;53.232;6.570;2023-12-20T04:10:15;19.10;;;2.45;;
75220;SDS011;63802;53.232;6.570;2023-12-20T04:12:40;20.95;;;3.30;;
75220;SDS011;63802;53.232;6.570;2023-12-20T04:15:06;24.92;;;3.42;;
75220;SDS011;63802;53.232;6.570;2023-12-20T04:17:35;17.77;;;2.73;;
75220;SDS011;63802;53.232;6.570;2023-12-20T04:20:01;22.02;;;3.60;;
75220;SDS011;63802;53.232;6.570;2023-12-20T04:22:27;16.90;;;3.15;;
75220;SDS011;63802;53.232;6.570;2023-12-20T04:24:52;15.80;;;2.40;;
75220;SDS011;63802;53.232;6.570;2023-12-20T04:27:17;15.23;;;2.40;;
75220;SDS011;63802;53.232;6.570;2023-12-20T04:29:43;17.70;;;3.58;;
75220;SDS011;63802;53.232;6.570;2023-12-20T04:32:09;17.98;;;3.22;;
75220;SDS011;63802;53.232;6.570;2023-12-20T04:34:34;18.02;;;3.10;;
75220;SDS011;63802;53.232;6.570;2023-12-20T04:36:59;15.77;;;3.58;;
75220;SDS011;63802;53.232;6.570;2023-12-20T04:39:26;24.52;;;3.25;;
75220;SDS011;63802;53.232;6.570;2023-12-20T04:41:52;17.98;;;2.75;;
75220;SDS011;63802;53.232;6.570;2023-12-20T04:44:17;18.33;;;3.00;;
75220;SDS011;63802;53.232;6.570;2023-12-20T04:46:43;15.95;;;2.40;;
75220;SDS011;63802;53.232;6.570;2023-12-20T04:49:11;25.17;;;3.25;;
75220;SDS011;63802;53.232;6.570;2023-12-20T04:51:36;20.17;;;2.47;;
75220;SDS011;63802;53.232;6.570;2023-12-20T04:54:03;16.48;;;2.50;;
75220;SDS011;63802;53.232;6.570;2023-12-20T04:56:28;18.83;;;3.08;;
75220;SDS011;63802;53.232;6.570;2023-12-20T04:58:53;26.10;;;4.07;;
75220;SDS011;63802;53.232;6.570;2023-12-20T05:01:19;18.63;;;2.72;;
75220;SDS011;63802;53.232;6.570;2023-12-20T05:03:44;14.70;;;2.40;;
75220;SDS011;63802;53.232;6.570;2023-12-20T05:06:10;15.90;;;2.85;;
75220;SDS011;63802;53.232;6.570;2023-12-20T05:08:35;15.95;;;2.65;;
75220;SDS011;63802;53.232;6.570;2023-12-20T05:11:01;27.98;;;4.88;;
75220;SDS011;63802;53.232;6.570;2023-12-20T05:13:26;22.80;;;4.00;;
75220;SDS011;63802;53.232;6.570;2023-12-20T05:15:52;17.67;;;3.05;;
75220;SDS011;63802;53.232;6.570;2023-12-20T05:18:17;27.10;;;3.35;;
75220;SDS011;63802;53.232;6.570;2023-12-20T05:20:43;17.65;;;2.88;;
75220;SDS011;63802;53.232;6.570;2023-12-20T05:23:08;16.88;;;3.13;;
75220;SDS011;63802;53.232;6.570;2023-12-20T05:25:33;23.35;;;3.30;;
75220;SDS011;63802;53.232;6.570;2023-12-20T05:27:59;24.05;;;3.97;;
75220;SDS011;63802;53.232;6.570;2023-12-20T05:30:24;18.55;;;3.10;;
75220;SDS011;63802;53.232;6.570;2023-12-20T05:32:49;14.80;;;2.38;;
75220;SDS011;63802;53.232;6.570;2023-12-20T05:35:15;19.83;;;2.63;;
75220;SDS011;63802;53.232;6.570;2023-12-20T05:37:41;14.98;;;3.05;;
75220;SDS011;63802;53.232;6.570;2023-12-20T05:40:06;13.50;;;2.85;;
75220;SDS011;63802;53.232;6.570;2023-12-20T05:42:35;12.60;;;2.60;;
75220;SDS011;63802;53.232;6.570;2023-12-20T05:45:00;18.67;;;3.10;;
75220;SDS011;63802;53.232;6.570;2023-12-20T05:47:26;15.85;;;3.20;;
75220;SDS011;63802;53.232;6.570;2023-12-20T05:49:51;19.60;;;3.03;;
75220;SDS011;63802;53.232;6.570;2023-12-20T05:52:17;23.70;;;3.13;;
75220;SDS011;63802;53.232;6.570;2023-12-20T05:54:42;20.08;;;2.95;;
75220;SDS011;63802;53.232;6.570;2023-12-20T05:57:08;28.40;;;2.88;;
75220;SDS011;63802;53.232;6.570;2023-12-20T05:59:33;14.65;;;2.50;;
75220;SDS011;63802;53.232;6.570;2023-12-20T06:01:58;19.75;;;2.75;;
75220;SDS011;63802;53.232;6.570;2023-12-20T06:04:24;13.63;;;2.97;;
75220;SDS011;63802;53.232;6.570;2023-12-20T06:06:49;14.40;;;2.33;;
75220;SDS011;63802;53.232;6.570;2023-12-20T06:09:14;21.85;;;3.55;;
75220;SDS011;63802;53.232;6.570;2023-12-20T06:11:40;18.20;;;3.30;;
75220;SDS011;63802;53.232;6.570;2023-12-20T06:14:06;21.10;;;3.75;;
75220;SDS011;63802;53.232;6.570;2023-12-20T06:16:31;22.40;;;3.00;;
75220;SDS011;63802;53.232;6.570;2023-12-20T06:18:57;23.67;;;3.10;;
75220;SDS011;63802;53.232;6.570;2023-12-20T06:21:22;20.98;;;3.35;;
75220;SDS011;63802;53.232;6.570;2023-12-20T06:23:48;19.35;;;2.88;;
75220;SDS011;63802;53.232;6.570;2023-12-20T06:26:13;15.25;;;3.20;;
75220;SDS011;63802;53.232;6.570;2023-12-20T06:28:39;20.58;;;3.38;;
75220;SDS011;63802;53.232;6.570;2023-12-20T06:31:04;28.08;;;3.30;;
75220;SDS011;63802;53.232;6.570;2023-12-20T06:33:29;15.95;;;2.72;;
75220;SDS011;63802;53.232;6.570;2023-12-20T06:35:56;12.60;;;2.33;;
75220;SDS011;63802;53.232;6.570;2023-12-20T06:38:22;15.93;;;3.15;;
75220;SDS011;63802;53.232;6.570;2023-12-20T06:40:47;22.88;;;2.85;;
75220;SDS011;63802;53.232;6.570;2023-12-20T06:43:13;19.60;;;3.15;;
75220;SDS011;63802;53.232;6.570;2023-12-20T06:45:39;17.48;;;3.53;;
75220;SDS011;63802;53.232;6.570;2023-12-20T06:48:04;16.80;;;3.35;;
75220;SDS011;63802;53.232;6.570;2023-12-20T06:50:30;21.92;;;3.17;;
75220;SDS011;63802;53.232;6.570;2023-12-20T06:52:56;20.65;;;3.20;;
75220;SDS011;63802;53.232;6.570;2023-12-20T06:55:21;19.00;;;3.28;;
75220;SDS011;63802;53.232;6.570;2023-12-20T06:57:46;12.23;;;2.72;;
75220;SDS011;63802;53.232;6.570;2023-12-20T07:00:12;20.95;;;3.15;;
75220;SDS011;63802;53.232;6.570;2023-12-20T07:02:38;18.70;;;3.00;;
75220;SDS011;63802;53.232;6.570;2023-12-20T07:05:04;20.90;;;4.35;;
75220;SDS011;63802;53.232;6.570;2023-12-20T07:07:29;26.58;;;3.10;;
75220;SDS011;63802;53.232;6.570;2023-12-20T07:09:55;19.88;;;2.88;;
75220;SDS011;63802;53.232;6.570;2023-12-20T07:12:20;19.52;;;2.83;;
75220;SDS011;63802;53.232;6.570;2023-12-20T07:14:47;25.05;;;4.05;;
75220;SDS011;63802;53.232;6.570;2023-12-20T07:17:12;15.55;;;3.00;;
75220;SDS011;63802;53.232;6.570;2023-12-20T07:19:39;12.93;;;2.63;;
75220;SDS011;63802;53.232;6.570;2023-12-20T07:22:05;24.60;;;3.65;;
75220;SDS011;63802;53.232;6.570;2023-12-20T07:24:31;15.25;;;3.13;;
75220;SDS011;63802;53.232;6.570;2023-12-20T07:26:59;18.95;;;3.05;;
75220;SDS011;63802;53.232;6.570;2023-12-20T07:29:25;9.57;;;2.95;;
75220;SDS011;63802;53.232;6.570;2023-12-20T07:31:50;18.58;;;2.97;;
75220;SDS011;63802;53.232;6.570;2023-12-20T07:34:17;15.90;;;2.50;;
75220;SDS011;63802;53.232;6.570;2023-12-20T07:36:43;17.40;;;3.22;;
75220;SDS011;63802;53.232;6.570;2023-12-20T07:39:08;16.38;;;3.28;;
75220;SDS011;63802;53.232;6.570;2023-12-20T07:41:34;15.25;;;3.28;;
75220;SDS011;63802;53.232;6.570;2023-12-20T07:43:59;12.98;;;3.15;;
75220;SDS011;63802;53.232;6.570;2023-12-20T07:46:25;17.48;;;3.35;;
75220;SDS011;63802;53.232;6.570;2023-12-20T07:48:50;19.13;;;3.63;;
75220;SDS011;63802;53.232;6.570;2023-12-20T07:51:16;17.67;;;3.03;;
75220;SDS011;63802;53.232;6.570;2023-12-20T07:53:41;19.42;;;3.13;;
75220;SDS011;63802;53.232;6.570;2023-12-20T07:56:13;21.73;;;4.53;;
75220;SDS011;63802;53.232;6.570;2023-12-20T07:58:40;16.63;;;2.85;;
75220;SDS011;63802;53.232;6.570;2023-12-20T08:01:06;19.15;;;2.88;;
75220;SDS011;63802;53.232;6.570;2023-12-20T08:03:31;15.30;;;3.33;;
75220;SDS011;63802;53.232;6.570;2023-12-20T08:05:57;24.25;;;4.20;;
75220;SDS011;63802;53.232;6.570;2023-12-20T08:08:24;19.80;;;3.25;;
75220;SDS011;63802;53.232;6.570;2023-12-20T08:10:50;26.20;;;2.90;;
75220;SDS011;63802;53.232;6.570;2023-12-20T08:13:15;15.85;;;3.90;;
75220;SDS011;63802;53.232;6.570;2023-12-20T08:15:40;17.38;;;2.58;;
75220;SDS011;63802;53.232;6.570;2023-12-20T08:18:06;16.85;;;2.92;;
75220;SDS011;63802;53.232;6.570;2023-12-20T08:20:31;14.15;;;2.70;;
75220;SDS011;63802;53.232;6.570;2023-12-20T08:22:57;18.48;;;2.80;;
75220;SDS011;63802;53.232;6.570;2023-12-20T08:25:22;15.05;;;2.95;;
75220;SDS011;63802;53.232;6.570;2023-12-20T08:27:47;18.67;;;2.75;;
75220;SDS011;63802;53.232;6.570;2023-12-20T08:30:13;18.38;;;3.25;;
75220;SDS011;63802;53.232;6.570;2023-12-20T08:32:38;17.95;;;3.30;;
75220;SDS011;63802;53.232;6.570;2023-12-20T08:35:04;18.75;;;2.40;;
75220;SDS011;63802;53.232;6.570;2023-12-20T08:37:30;15.07;;;1.70;;
75220;SDS011;63802;53.232;6.570;2023-12-20T08:39:57;5.68;;;0.70;;
75220;SDS011;63802;53.232;6.570;2023-12-20T08:42:22;3.20;;;1.35;;
75220;SDS011;63802;53.232;6.570;2023-12-20T08:44:49;4.38;;;1.30;;
75220;SDS011;63802;53.232;6.570;2023-12-20T08:47:16;3.88;;;1.15;;
75220;SDS011;63802;53.232;6.570;2023-12-20T08:49:42;10.85;;;1.48;;
75220;SDS011;63802;53.232;6.570;2023-12-20T08:52:08;7.97;;;1.05;;
75220;SDS011;63802;53.232;6.570;2023-12-20T08:54:34;7.32;;;1.33;;
75220;SDS011;63802;53.232;6.570;2023-12-20T08:56:59;2.42;;;0.80;;
75220;SDS011;63802;53.232;6.570;2023-12-20T08:59:25;5.07;;;0.73;;
75220;SDS011;63802;53.232;6.570;2023-12-20T09:01:50;10.48;;;1.00;;
75220;SDS011;63802;53.232;6.570;2023-12-20T09:04:19;12.17;;;2.07;;
75220;SDS011;63802;53.232;6.570;2023-12-20T09:06:45;9.82;;;1.45;;
75220;SDS011;63802;53.232;6.570;2023-12-20T09:09:11;7.53;;;0.93;;
75220;SDS011;63802;53.232;6.570;2023-12-20T09:11:38;9.88;;;1.38;;
75220;SDS011;63802;53.232;6.570;2023-12-20T09:14:04;4.88;;;1.02;;
75220;SDS011;63802;53.232;6.570;2023-12-20T09:16:33;14.10;;;1.77;;
75220;SDS011;63802;53.232;6.570;2023-12-20T09:18:58;7.55;;;1.60;;
75220;SDS011;63802;53.232;6.570;2023-12-20T09:21:23;7.90;;;1.27;;
75220;SDS011;63802;53.232;6.570;2023-12-20T09:23:49;8.43;;;1.48;;
75220;SDS011;63802;53.232;6.570;2023-12-20T09:26:14;11.73;;;2.78;;
75220;SDS011;63802;53.232;6.570;2023-12-20T09:28:40;9.35;;;1.40;;
75220;SDS011;63802;53.232;6.570;2023-12-20T09:31:05;5.38;;;1.10;;
75220;SDS011;63802;53.232;6.570;2023-12-20T09:33:31;11.85;;;1.23;;
75220;SDS011;63802;53.232;6.570;2023-12-20T09:35:57;8.45;;;1.42;;
75220;SDS011;63802;53.232;6.570;2023-12-20T09:38:23;3.72;;;1.17;;
75220;SDS011;63802;53.232;6.570;2023-12-20T09:40:48;9.65;;;0.88;;
75220;SDS011;63802;53.232;6.570;2023-12-20T09:43:14;7.68;;;1.40;;
75220;SDS011;63802;53.232;6.570;2023-12-20T09:45:45;8.20;;;1.25;;
75220;SDS011;63802;53.232;6.570;2023-12-20T09:48:11;11.68;;;0.98;;
75220;SDS011;63802;53.232;6.570;2023-12-20T09:50:41;5.65;;;0.98;;
75220;SDS011;63802;53.232;6.570;2023-12-20T09:53:10;6.90;;;1.05;;
75220;SDS011;63802;53.232;6.570;2023-12-20T09:55:39;6.60;;;1.20;;
75220;SDS011;63802;53.232;6.570;2023-12-20T09:58:06;8.88;;;1.08;;
75220;SDS011;63802;53.232;6.570;2023-12-20T10:00:34;7.90;;;1.15;;
75220;SDS011;63802;53.232;6.570;2023-12-20T10:03:00;6.97;;;1.42;;
75220;SDS011;63802;53.232;6.570;2023-12-20T10:05:26;6.22;;;1.13;;
75220;SDS011;63802;53.232;6.570;2023-12-20T10:07:58;7.35;;;1.60;;
75220;SDS011;63802;53.232;6.570;2023-12-20T10:10:25;9.90;;;1.50;;
75220;SDS011;63802;53.232;6.570;2023-12-20T10:13:12;8.48;;;2.20;;
75220;SDS011;63802;53.232;6.570;2023-12-20T10:15:37;10.60;;;1.02;;
75220;SDS011;63802;53.232;6.570;2023-12-20T10:18:03;11.45;;;1.25;;
75220;SDS011;63802;53.232;6.570;2023-12-20T10:20:30;8.65;;;1.27;;
75220;SDS011;63802;53.232;6.570;2023-12-20T10:22:57;6.03;;;2.05;;
75220;SDS011;63802;53.232;6.570;2023-12-20T10:25:23;12.35;;;1.80;;
75220;SDS011;63802;53.232;6.570;2023-12-20T10:27:50;13.27;;;1.58;;
75220;SDS011;63802;53.232;6.570;2023-12-20T10:30:33;5.00;;;1.30;;
75220;SDS011;63802;53.232;6.570;2023-12-20T10:32:59;13.18;;;1.70;;
75220;SDS011;63802;53.232;6.570;2023-12-20T10:35:24;15.32;;;1.73;;
75220;SDS011;63802;53.232;6.570;2023-12-20T10:37:50;9.63;;;1.77;;
75220;SDS011;63802;53.232;6.570;2023-12-20T10:40:21;12.10;;;1.25;;
75220;SDS011;63802;53.232;6.570;2023-12-20T10:42:46;15.57;;;1.58;;
75220;SDS011;63802;53.232;6.570;2023-12-20T10:45:12;10.30;;;2.17;;
75220;SDS011;63802;53.232;6.570;2023-12-20T10:47:37;14.18;;;1.33;;
75220;SDS011;63802;53.232;6.570;2023-12-20T10:50:05;5.75;;;1.25;;
75220;SDS011;63802;53.232;6.570;2023-12-20T10:52:31;8.13;;;1.67;;
75220;SDS011;63802;53.232;6.570;2023-12-20T10:54:57;8.88;;;1.65;;
75220;SDS011;63802;53.232;6.570;2023-12-20T10:57:23;9.55;;;1.85;;
75220;SDS011;63802;53.232;6.570;2023-12-20T10:59:52;9.75;;;1.33;;
75220;SDS011;63802;53.232;6.570;2023-12-20T11:02:19;8.40;;;1.60;;
75220;SDS011;63802;53.232;6.570;2023-12-20T11:04:59;14.00;;;1.67;;
75220;SDS011;63802;53.232;6.570;2023-12-20T11:07:52;11.45;;;1.73;;
75220;SDS011;63802;53.232;6.570;2023-12-20T11:10:30;10.40;;;1.42;;
75220;SDS011;63802;53.232;6.570;2023-12-20T11:15:35;3.15;;;1.05;;
75220;SDS011;63802;53.232;6.570;2023-12-20T11:18:02;8.43;;;1.60;;
75220;SDS011;63802;53.232;6.570;2023-12-20T11:20:36;15.43;;;2.30;;
75220;SDS011;63802;53.232;6.570;2023-12-20T11:23:06;12.27;;;2.15;;
75220;SDS011;63802;53.232;6.570;2023-12-20T11:25:46;14.02;;;1.85;;
75220;SDS011;63802;53.232;6.570;2023-12-20T11:28:13;14.57;;;2.13;;
75220;SDS011;63802;53.232;6.570;2023-12-20T11:30:45;16.88;;;2.50;;
75220;SDS011;63802;53.232;6.570;2023-12-20T11:33:21;11.57;;;1.55;;
75220;SDS011;63802;53.232;6.570;2023-12-20T11:35:48;13.95;;;2.67;;
75220;SDS011;63802;53.232;6.570;2023-12-20T11:38:14;10.82;;;2.13;;
75220;SDS011;63802;53.232;6.570;2023-12-20T11:40:41;14.85;;;1.90;;
75220;SDS011;63802;53.232;6.570;2023-12-20T11:43:07;11.85;;;1.55;;
75220;SDS011;63802;53.232;6.570;2023-12-20T11:45:33;19.30;;;2.45;;
75220;SDS011;63802;53.232;6.570;2023-12-20T11:48:02;19.55;;;2.30;;
75220;SDS011;63802;53.232;6.570;2023-12-20T11:50:28;8.88;;;1.50;;
75220;SDS011;63802;53.232;6.570;2023-12-20T11:52:55;10.80;;;1.90;;
75220;SDS011;63802;53.232;6.570;2023-12-20T11:55:21;21.13;;;2.42;;
75220;SDS011;63802;53.232;6.570;2023-12-20T11:57:48;9.88;;;2.13;;
75220;SDS011;63802;53.232;6.570;2023-12-20T12:00:15;9.27;;;2.40;;
75220;SDS011;63802;53.232;6.570;2023-12-20T12:02:41;18.77;;;1.80;;
75220;SDS011;63802;53.232;6.570;2023-12-20T12:05:07;13.65;;;1.50;;
75220;SDS011;63802;53.232;6.570;2023-12-20T12:07:33;12.07;;;1.75;;
75220;SDS011;63802;53.232;6.570;2023-12-20T12:09:59;11.40;;;1.88;;
75220;SDS011;63802;53.232;6.570;2023-12-20T12:12:25;15.20;;;2.25;;
75220;SDS011;63802;53.232;6.570;2023-12-20T12:14:52;14.15;;;2.08;;
75220;SDS011;63802;53.232;6.570;2023-12-20T12:17:19;8.43;;;1.92;;
75220;SDS011;63802;53.232;6.570;2023-12-20T12:19:44;13.05;;;2.17;;
75220;SDS011;63802;53.232;6.570;2023-12-20T12:22:14;12.70;;;1.90;;
75220;SDS011;63802;53.232;6.570;2023-12-20T12:24:44;7.32;;;1.60;;
75220;SDS011;63802;53.232;6.570;2023-12-20T12:27:11;11.13;;;2.13;;
75220;SDS011;63802;53.232;6.570;2023-12-20T12:29:38;9.73;;;2.03;;
75220;SDS011;63802;53.232;6.570;2023-12-20T12:32:07;7.72;;;1.77;;
75220;SDS011;63802;53.232;6.570;2023-12-20T12:36:59;7.13;;;1.30;;
75220;SDS011;63802;53.232;6.570;2023-12-20T12:39:25;12.05;;;1.52;;
75220;SDS011;63802;53.232;6.570;2023-12-20T12:41:50;8.82;;;3.17;;
75220;SDS011;63802;53.232;6.570;2023-12-20T12:44:16;12.02;;;1.73;;
75220;SDS011;63802;53.232;6.570;2023-12-20T12:46:43;16.20;;;2.03;;
75220;SDS011;63802;53.232;6.570;2023-12-20T12:49:12;5.47;;;1.25;;
75220;SDS011;63802;53.232;6.570;2023-12-20T12:51:38;6.32;;;1.58;;
75220;SDS011;63802;53.232;6.570;2023-12-20T12:54:04;8.02;;;2.08;;
75220;SDS011;63802;53.232;6.570;2023-12-20T12:56:29;12.13;;;2.08;;
75220;SDS011;63802;53.232;6.570;2023-12-20T12:58:55;10.60;;;1.70;;
75220;SDS011;63802;53.232;6.570;2023-12-20T13:01:20;9.02;;;1.55;;
75220;SDS011;63802;53.232;6.570;2023-12-20T13:03:46;8.23;;;1.20;;
75220;SDS011;63802;53.232;6.570;2023-12-20T13:06:12;13.45;;;1.90;;
75220;SDS011;63802;53.232;6.570;2023-12-20T13:08:37;8.82;;;1.85;;
75220;SDS011;63802;53.232;6.570;2023-12-20T13:11:03;8.10;;;1.60;;
75220;SDS011;63802;53.232;6.570;2023-12-20T13:13:29;8.23;;;1.85;;
75220;SDS011;63802;53.232;6.570;2023-12-20T13:15:55;8.73;;;1.90;;
75220;SDS011;63802;53.232;6.570;2023-12-20T13:18:21;7.65;;;1.70;;
75220;SDS011;63802;53.232;6.570;2023-12-20T13:20:47;16.85;;;1.65;;
75220;SDS011;63802;53.232;6.570;2023-12-20T13:23:13;9.00;;;1.83;;
75220;SDS011;63802;53.232;6.570;2023-12-20T13:25:39;9.48;;;1.50;;
75220;SDS011;63802;53.232;6.570;2023-12-20T13:28:04;11.95;;;1.63;;
75220;SDS011;63802;53.232;6.570;2023-12-20T13:30:30;7.93;;;1.65;;
75220;SDS011;63802;53.232;6.570;2023-12-20T13:32:56;11.10;;;1.60;;
75220;SDS011;63802;53.232;6.570;2023-12-20T13:35:21;10.70;;;1.65;;
75220;SDS011;63802;53.232;6.570;2023-12-20T13:37:47;14.23;;;2.35;;
75220;SDS011;63802;53.232;6.570;2023-12-20T13:40:12;9.65;;;1.42;;
75220;SDS011;63802;53.232;6.570;2023-12-20T13:42:39;14.55;;;2.05;;
75220;SDS011;63802;53.232;6.570;2023-12-20T13:45:04;14.93;;;1.50;;
75220;SDS011;63802;53.232;6.570;2023-12-20T13:47:31;11.30;;;1.88;;
75220;SDS011;63802;53.232;6.570;2023-12-20T13:49:57;9.60;;;1.85;;
75220;SDS011;63802;53.232;6.570;2023-12-20T13:52:22;10.70;;;1.55;;
75220;SDS011;63802;53.232;6.570;2023-12-20T13:54:48;11.57;;;1.98;;
75220;SDS011;63802;53.232;6.570;2023-12-20T13:57:13;9.85;;;1.65;;
75220;SDS011;63802;53.232;6.570;2023-12-20T13:59:38;7.93;;;1.42;;
75220;SDS011;63802;53.232;6.570;2023-12-20T14:02:04;3.45;;;1.10;;
75220;SDS011;63802;53.232;6.570;2023-12-20T14:04:30;4.47;;;1.13;;
75220;SDS011;63802;53.232;6.570;2023-12-20T14:06:56;4.88;;;1.55;;
75220;SDS011;63802;53.232;6.570;2023-12-20T14:09:21;3.65;;;1.10;;
75220;SDS011;63802;53.232;6.570;2023-12-20T14:11:47;4.40;;;1.60;;
75220;SDS011;63802;53.232;6.570;2023-12-20T14:14:13;5.00;;;1.38;;
75220;SDS011;63802;53.232;6.570;2023-12-20T14:16:38;6.30;;;0.98;;
75220;SDS011;63802;53.232;6.570;2023-12-20T14:19:03;7.90;;;1.55;;
75220;SDS011;63802;53.232;6.570;2023-12-20T14:21:31;7.65;;;1.55;;
75220;SDS011;63802;53.232;6.570;2023-12-20T14:23:57;6.20;;;1.20;;
75220;SDS011;63802;53.232;6.570;2023-12-20T14:26:22;9.05;;;1.38;;
75220;SDS011;63802;53.232;6.570;2023-12-20T14:28:47;8.55;;;1.05;;
75220;SDS011;63802;53.232;6.570;2023-12-20T14:31:13;7.75;;;1.60;;
75220;SDS011;63802;53.232;6.570;2023-12-20T14:33:38;5.35;;;1.13;;
75220;SDS011;63802;53.232;6.570;2023-12-20T14:36:05;3.67;;;1.00;;